CL Belgium — VRVQ9 — position and weather

sailwx.info

Track history (hours):
 
Tides and Currents Weather Stations Pressure Air Temp Water Temp Dewpoint Dewpoint Depression Visibility Wind Speed Wind Dir Waves Ship Positions

CL Belgium

Last reported at 2017-Dec-11 11:00 UTC. Time now 2017-Dec-13 13:11 UTC.
Position N 46°06' W 046°18'.

Length 245 m; beam 32.2 m; draft 10.8 m.

Type: Ship (hazmat cat A). MMSI: 477616000.

Wind from 130 at 48 knots

Barometer 1017.2 mb
Air temperature 8.0 ° C
Visibility: greater than 10.8 NM
Dewpoint 5.8 ° C

Date/timePositionNaut miles runAvg speedWind from/ knotsBaromVisibWave heightAir tempDewpointWater temp
2017-Dec-11 11:00N 46°06' W 046°18'9418.9 130 / 481017.210.8 8.0 5.8
2017-Dec-11 06:00N 46°30' W 044°06'11115.8 210 / 381012.6 5.4 12.512.5
2017-Dec-10 23:00N 47°12' W 041°36'10520.9 200 / 421015.0 5.4 17.017.0
2017-Dec-10 18:00N 48°00' W 039°18'10815.5 170 / 201020.710.8 11.0 6.6
2017-Dec-10 11:00N 48°42' W 036°48'15714.3 320 / 251020.710.8 10.0 5.6
2017-Dec-10 00:00N 49°42' W 033°06'15712.1 260 / 451005.7 9.0 6.9
2017-Dec-09 11:00N 50°12' W 029°06'16915.4 280 / 471005.710.8 9.5 6.3
2017-Dec-09 00:00N 50°18' W 024°42'8814.7 240 / 201010.9 0.1 14.014.0
2017-Dec-08 18:00N 50°18' W 022°24'10014.3 140 / 221015.7 2.2 12.012.0
2017-Dec-08 11:00N 50°12' W 019°48'8917.7 110 / 181030.010.8 11.5 9.5
2017-Dec-08 06:00N 50°06' W 017°30'19115.9 300 / 171028.410.8 10.0 3.1
2017-Dec-07 18:00N 50°42' W 012°36'5714.3 1024.210.8 10.5 9.0
2017-Dec-07 14:00N 50°42' W 011°06'5615.5 330 / 171021.410.8 10.8 7.9
2017-Dec-07 10:21N 51°02' W 009°43'514.9
2017-Dec-07 10:01N 51°04' W 009°35'715.0
2017-Dec-07 09:31N 51°07' W 009°24'815.3
2017-Dec-07 09:01N 51°10' W 009°13'815.1
2017-Dec-07 08:31N 51°13' W 009°02'815.1
2017-Dec-07 08:01N 51°16' W 008°51'715.0
2017-Dec-07 07:31N 51°20' W 008°40'714.9
2017-Dec-07 07:01N 51°23' W 008°30'714.9
2017-Dec-07 06:31N 51°26' W 008°19'815.3
2017-Dec-07 06:01N 51°29' W 008°08'180.4
2017-Dec-07 06:00N 51°30' W 008°06'613.1 310 / 501019.910.8 9.018.2
2017-Dec-07 05:31N 51°33' W 007°57'815.2
2017-Dec-07 05:01N 51°36' W 007°46'815.3
2017-Dec-07 04:31N 51°39' W 007°34'714.8
2017-Dec-07 04:01N 51°42' W 007°24'714.6
2017-Dec-07 03:31N 51°45' W 007°13'814.8
2017-Dec-07 03:00N 51°48' W 007°02'814.9
2017-Dec-07 02:29N 51°51' W 006°51'715.1
2017-Dec-07 02:01N 51°55' W 006°40'714.8
2017-Dec-07 01:30N 51°59' W 006°30'714.5
2017-Dec-07 01:01N 52°03' W 006°21'713.9
2017-Dec-07 00:30N 52°07' W 006°12'713.2
2017-Dec-07 00:00N 52°13' W 006°07'713.3
2017-Dec-06 23:30N 52°19' W 006°01'612.9
2017-Dec-06 23:00N 52°25' W 005°56'7434.7
2017-Dec-06 23:00N 52°18' W 005°54'1224.7 220 / 341004.8 5.4 11.5 9.5
2017-Dec-06 22:30N 52°30' W 005°50'611.9
2017-Dec-06 22:00N 52°35' W 005°45'  
2017-Dec-04 10:30N 50°02' W 002°44'918.2
2017-Dec-04 10:00N 50°03' W 002°31'1616.7
2017-Dec-04 09:03N 50°05' W 002°06'115.8
2017-Dec-04 09:00N 50°05' W 002°05'815.2
2017-Dec-04 08:30N 50°05' W 001°53'714.8
2017-Dec-04 08:00N 50°05' W 001°42'713.7
2017-Dec-04 07:30N 50°04' W 001°31'714.2
2017-Dec-04 07:01N 49°60' W 001°22'714.3
2017-Dec-04 06:30N 49°56' W 001°12'714.9
2017-Dec-04 06:00N 49°52' W 001°03'815.9
2017-Dec-04 05:31N 49°48' W 000°52'917.0
2017-Dec-04 05:00N 49°43' W 000°41'918.0
2017-Dec-04 04:30N 49°38' W 000°30'918.5
2017-Dec-04 04:00N 49°34' W 000°17'816.4
2017-Dec-04 03:31N 49°31' W 000°05'613.0
2017-Dec-04 03:00N 49°29' E 000°04'3 6.7
2017-Dec-04 02:30N 49°28' E 000°09'0 0.0
2017-Dec-04 01:58N 49°28' E 000°09'0 0.0
2017-Dec-04 01:28N 49°28' E 000°09'0 0.0
2017-Dec-04 00:58N 49°28' E 000°09'0 0.0
2017-Dec-04 00:28N 49°28' E 000°09'0 0.0
2017-Dec-03 23:58N 49°28' E 000°09'0 0.0
2017-Dec-03 23:28N 49°28' E 000°09'0 0.0
2017-Dec-03 22:58N 49°28' E 000°09'0 0.0
2017-Dec-03 22:28N 49°28' E 000°09'0 0.0
2017-Dec-03 21:58N 49°28' E 000°09'0 0.0
2017-Dec-03 21:28N 49°28' E 000°09'0 0.0
2017-Dec-03 20:58N 49°28' E 000°09'0 0.0
2017-Dec-03 20:28N 49°28' E 000°09'0 0.0
2017-Dec-03 19:58N 49°28' E 000°09'0 0.0
2017-Dec-03 19:28N 49°28' E 000°09'0 0.0
2017-Dec-03 18:58N 49°28' E 000°09'0 0.0
2017-Dec-03 18:28N 49°28' E 000°09'0 0.0
2017-Dec-03 17:58N 49°28' E 000°09'0 0.0
2017-Dec-03 17:28N 49°28' E 000°09'0 0.0
2017-Dec-03 16:58N 49°28' E 000°09'0 0.0
2017-Dec-03 16:28N 49°28' E 000°09'0 0.0
2017-Dec-03 15:58N 49°28' E 000°09'0 0.4
2017-Dec-03 15:31N 49°28' E 000°10'2 4.4
2017-Dec-03 15:00N 49°29' E 000°06'612.0
2017-Dec-03 14:30N 49°31' W 000°03'4 7.6
2017-Dec-03 14:00N 49°34' W 000°06'510.7
2017-Dec-03 13:31N 49°39' W 000°04'1019.1
2017-Dec-03 13:01N 49°48' E 000°02'1020.3
2017-Dec-03 12:31N 49°57' E 000°07'3219.7
2017-Dec-03 10:53N 50°26' E 000°28'719.1
2017-Dec-03 10:31N 50°33' E 000°33'918.2
2017-Dec-03 10:01N 50°38' E 000°45'918.4
2017-Dec-03 09:31N 50°43' E 000°57'918.3
2017-Dec-03 09:00N 50°49' E 001°07'1019.0
2017-Dec-03 08:30N 50°57' E 001°16'1020.3
2017-Dec-03 08:01N 51°04' E 001°27'1122.5
2017-Dec-03 07:30N 51°11' E 001°41'1122.2
2017-Dec-03 07:00N 51°21' E 001°51'1121.7
2017-Dec-03 06:31N 51°30' E 002°01'1121.1
2017-Dec-03 06:00N 51°38' E 002°11'919.0
2017-Dec-03 05:30N 51°46' E 002°20'8918.1
2017-Dec-03 00:36N 52°54' E 003°53'718.9
2017-Dec-03 00:13N 52°59' E 004°02'3819.0
2017-Dec-02 22:14N 53°29' E 004°40'519.5
2017-Dec-02 22:00N 53°31' E 004°47'1019.4
2017-Dec-02 21:31N 53°34' E 005°02'1118.8
2017-Dec-02 20:56N 53°38' E 005°19'7717.3
2017-Dec-02 16:31N 53°58' E 007°24'118.6
2017-Dec-02 16:28N 53°58' E 007°25'1415.9
2017-Dec-02 15:36N 53°53' E 007°48'116.0
2017-Dec-02 15:30N 53°53' E 007°50'713.7
2017-Dec-02 15:00N 53°51' E 008°01'815.7
2017-Dec-02 14:31N 53°46' E 008°11'817.0
2017-Dec-02 14:01N 53°41' E 008°22'815.0
2017-Dec-02 13:30N 53°35' E 008°31'1 1.3
2017-Dec-02 13:00N 53°35' E 008°32'0 0.0
2017-Dec-02 12:29N 53°35' E 008°32'0 0.0
2017-Dec-02 11:59N 53°35' E 008°32'0 0.0
2017-Dec-02 11:29N 53°35' E 008°32'0 0.0
2017-Dec-02 10:59N 53°35' E 008°32'0 0.0
2017-Dec-02 10:29N 53°35' E 008°32'0 0.0
2017-Dec-02 09:59N 53°35' E 008°32'0 0.0
2017-Dec-02 09:29N 53°35' E 008°32'0 0.0
2017-Dec-02 08:59N 53°35' E 008°32'0 0.0
2017-Dec-02 08:29N 53°35' E 008°32'0 0.0
2017-Dec-02 07:59N 53°35' E 008°32'0 0.0
2017-Dec-02 07:29N 53°35' E 008°32'0 0.0
2017-Dec-02 06:59N 53°35' E 008°32'0 0.0
2017-Dec-02 06:29N 53°35' E 008°32'0 0.0
2017-Dec-02 05:59N 53°35' E 008°32'0 0.0
2017-Dec-02 05:29N 53°35' E 008°32'0 0.0
2017-Dec-02 04:59N 53°35' E 008°32'0 0.0
2017-Dec-02 04:29N 53°35' E 008°32'0 0.0
2017-Dec-02 03:59N 53°35' E 008°32'0 0.1
2017-Dec-02 03:29N 53°35' E 008°32'0 0.0
2017-Dec-02 02:59N 53°35' E 008°32'0 0.0
2017-Dec-02 02:29N 53°35' E 008°32'0 0.1
2017-Dec-02 01:59N 53°35' E 008°32'0 0.0
2017-Dec-02 01:29N 53°35' E 008°32'0 0.0
2017-Dec-02 00:59N 53°35' E 008°32'0 0.0
2017-Dec-02 00:29N 53°35' E 008°32'0 0.0
2017-Dec-01 23:59N 53°35' E 008°32'0 0.0
2017-Dec-01 23:29N 53°35' E 008°32'0 0.0
2017-Dec-01 22:59N 53°35' E 008°32'0 0.0
2017-Dec-01 22:29N 53°35' E 008°32'0 0.0
2017-Dec-01 21:59N 53°35' E 008°32'0 0.0
2017-Dec-01 21:29N 53°35' E 008°32'0 0.0
2017-Dec-01 20:59N 53°35' E 008°32'0 0.0
2017-Dec-01 20:29N 53°35' E 008°32'0 0.0
2017-Dec-01 19:59N 53°35' E 008°32'0 0.0
2017-Dec-01 19:29N 53°35' E 008°32'0 0.0
2017-Dec-01 18:59N 53°35' E 008°32'0 0.0
2017-Dec-01 18:29N 53°35' E 008°32'0 0.0
2017-Dec-01 17:59N 53°35' E 008°32'0 0.0
2017-Dec-01 17:29N 53°35' E 008°32'0 0.0
2017-Dec-01 16:59N 53°35' E 008°32'0 0.0
2017-Dec-01 16:30N 53°35' E 008°32'1 1.9
2017-Dec-01 16:00N 53°36' E 008°31'510.4
2017-Dec-01 15:30N 53°39' E 008°24'713.4
2017-Dec-01 15:01N 53°43' E 008°16'713.4
2017-Dec-01 14:30N 53°48' E 008°08'713.5
2017-Dec-01 14:00N 53°51' E 007°58'611.9
2017-Dec-01 13:30N 53°53' E 007°48'612.4
2017-Dec-01 12:59N 53°53' E 007°37'1 1.4
2017-Dec-01 12:19N 53°54' E 007°36'  
Track history (hours):
 
Tides and Currents Weather Stations Pressure Air Temp Water Temp Dewpoint Dewpoint Depression Visibility Wind Speed Wind Dir Waves Ship Positions

CL Belgium

Last reported at 2017-Dec-11 11:00 UTC. Time now 2017-Dec-13 13:11 UTC.
Position N 46°06' W 046°18'.

Length 245 m; beam 32.2 m; draft 10.8 m.

Type: Ship (hazmat cat A). MMSI: 477616000.

Wind from 130 at 48 knots

Barometer 1017.2 mb
Air temperature 8.0 ° C
Visibility: greater than 10.8 NM
Dewpoint 5.8 ° C

Date/timePositionNaut miles runAvg speedWind from/ knotsBaromVisibWave heightAir tempDewpointWater temp
2017-Dec-11 11:00N 46°06' W 046°18'9418.9 130 / 481017.210.8 8.0 5.8
2017-Dec-11 06:00N 46°30' W 044°06'11115.8 210 / 381012.6 5.4 12.512.5
2017-Dec-10 23:00N 47°12' W 041°36'10520.9 200 / 421015.0 5.4 17.017.0
2017-Dec-10 18:00N 48°00' W 039°18'10815.5 170 / 201020.710.8 11.0 6.6
2017-Dec-10 11:00N 48°42' W 036°48'15714.3 320 / 251020.710.8 10.0 5.6
2017-Dec-10 00:00N 49°42' W 033°06'15712.1 260 / 451005.7 9.0 6.9
2017-Dec-09 11:00N 50°12' W 029°06'16915.4 280 / 471005.710.8 9.5 6.3
2017-Dec-09 00:00N 50°18' W 024°42'8814.7 240 / 201010.9 0.1 14.014.0
2017-Dec-08 18:00N 50°18' W 022°24'10014.3 140 / 221015.7 2.2 12.012.0
2017-Dec-08 11:00N 50°12' W 019°48'8917.7 110 / 181030.010.8 11.5 9.5
2017-Dec-08 06:00N 50°06' W 017°30'19115.9 300 / 171028.410.8 10.0 3.1
2017-Dec-07 18:00N 50°42' W 012°36'5714.3 1024.210.8 10.5 9.0
2017-Dec-07 14:00N 50°42' W 011°06'5615.5 330 / 171021.410.8 10.8 7.9
2017-Dec-07 10:21N 51°02' W 009°43'514.9
2017-Dec-07 10:01N 51°04' W 009°35'715.0
2017-Dec-07 09:31N 51°07' W 009°24'815.3
2017-Dec-07 09:01N 51°10' W 009°13'815.1
2017-Dec-07 08:31N 51°13' W 009°02'815.1
2017-Dec-07 08:01N 51°16' W 008°51'715.0
2017-Dec-07 07:31N 51°20' W 008°40'714.9
2017-Dec-07 07:01N 51°23' W 008°30'714.9
2017-Dec-07 06:31N 51°26' W 008°19'815.3
2017-Dec-07 06:01N 51°29' W 008°08'180.4
2017-Dec-07 06:00N 51°30' W 008°06'613.1 310 / 501019.910.8 9.018.2
2017-Dec-07 05:31N 51°33' W 007°57'815.2
2017-Dec-07 05:01N 51°36' W 007°46'815.3
2017-Dec-07 04:31N 51°39' W 007°34'714.8
2017-Dec-07 04:01N 51°42' W 007°24'714.6
2017-Dec-07 03:31N 51°45' W 007°13'814.8
2017-Dec-07 03:00N 51°48' W 007°02'814.9
2017-Dec-07 02:29N 51°51' W 006°51'715.1
2017-Dec-07 02:01N 51°55' W 006°40'714.8
2017-Dec-07 01:30N 51°59' W 006°30'714.5
2017-Dec-07 01:01N 52°03' W 006°21'713.9
2017-Dec-07 00:30N 52°07' W 006°12'713.2
2017-Dec-07 00:00N 52°13' W 006°07'713.3
2017-Dec-06 23:30N 52°19' W 006°01'612.9
2017-Dec-06 23:00N 52°25' W 005°56'7434.7
2017-Dec-06 23:00N 52°18' W 005°54'1224.7 220 / 341004.8 5.4 11.5 9.5
2017-Dec-06 22:30N 52°30' W 005°50'611.9
2017-Dec-06 22:00N 52°35' W 005°45'  
2017-Dec-04 10:30N 50°02' W 002°44'918.2
2017-Dec-04 10:00N 50°03' W 002°31'1616.7
2017-Dec-04 09:03N 50°05' W 002°06'115.8
2017-Dec-04 09:00N 50°05' W 002°05'815.2
2017-Dec-04 08:30N 50°05' W 001°53'714.8
2017-Dec-04 08:00N 50°05' W 001°42'713.7
2017-Dec-04 07:30N 50°04' W 001°31'714.2
2017-Dec-04 07:01N 49°60' W 001°22'714.3
2017-Dec-04 06:30N 49°56' W 001°12'714.9
2017-Dec-04 06:00N 49°52' W 001°03'815.9
2017-Dec-04 05:31N 49°48' W 000°52'917.0
2017-Dec-04 05:00N 49°43' W 000°41'918.0
2017-Dec-04 04:30N 49°38' W 000°30'918.5
2017-Dec-04 04:00N 49°34' W 000°17'816.4
2017-Dec-04 03:31N 49°31' W 000°05'613.0
2017-Dec-04 03:00N 49°29' E 000°04'3 6.7
2017-Dec-04 02:30N 49°28' E 000°09'0 0.0
2017-Dec-04 01:58N 49°28' E 000°09'0 0.0
2017-Dec-04 01:28N 49°28' E 000°09'0 0.0
2017-Dec-04 00:58N 49°28' E 000°09'0 0.0
2017-Dec-04 00:28N 49°28' E 000°09'0 0.0
2017-Dec-03 23:58N 49°28' E 000°09'0 0.0
2017-Dec-03 23:28N 49°28' E 000°09'0 0.0
2017-Dec-03 22:58N 49°28' E 000°09'0 0.0
2017-Dec-03 22:28N 49°28' E 000°09'0 0.0
2017-Dec-03 21:58N 49°28' E 000°09'0 0.0
2017-Dec-03 21:28N 49°28' E 000°09'0 0.0
2017-Dec-03 20:58N 49°28' E 000°09'0 0.0
2017-Dec-03 20:28N 49°28' E 000°09'0 0.0
2017-Dec-03 19:58N 49°28' E 000°09'0 0.0
2017-Dec-03 19:28N 49°28' E 000°09'0 0.0
2017-Dec-03 18:58N 49°28' E 000°09'0 0.0
2017-Dec-03 18:28N 49°28' E 000°09'0 0.0
2017-Dec-03 17:58N 49°28' E 000°09'0 0.0
2017-Dec-03 17:28N 49°28' E 000°09'0 0.0
2017-Dec-03 16:58N 49°28' E 000°09'0 0.0
2017-Dec-03 16:28N 49°28' E 000°09'0 0.0
2017-Dec-03 15:58N 49°28' E 000°09'0 0.4
2017-Dec-03 15:31N 49°28' E 000°10'2 4.4
2017-Dec-03 15:00N 49°29' E 000°06'612.0
2017-Dec-03 14:30N 49°31' W 000°03'4 7.6
2017-Dec-03 14:00N 49°34' W 000°06'510.7
2017-Dec-03 13:31N 49°39' W 000°04'1019.1
2017-Dec-03 13:01N 49°48' E 000°02'1020.3
2017-Dec-03 12:31N 49°57' E 000°07'3219.7
2017-Dec-03 10:53N 50°26' E 000°28'719.1
2017-Dec-03 10:31N 50°33' E 000°33'918.2
2017-Dec-03 10:01N 50°38' E 000°45'918.4
2017-Dec-03 09:31N 50°43' E 000°57'918.3
2017-Dec-03 09:00N 50°49' E 001°07'1019.0
2017-Dec-03 08:30N 50°57' E 001°16'1020.3
2017-Dec-03 08:01N 51°04' E 001°27'1122.5
2017-Dec-03 07:30N 51°11' E 001°41'1122.2
2017-Dec-03 07:00N 51°21' E 001°51'1121.7
2017-Dec-03 06:31N 51°30' E 002°01'1121.1
2017-Dec-03 06:00N 51°38' E 002°11'919.0
2017-Dec-03 05:30N 51°46' E 002°20'8918.1
2017-Dec-03 00:36N 52°54' E 003°53'718.9
2017-Dec-03 00:13N 52°59' E 004°02'3819.0
2017-Dec-02 22:14N 53°29' E 004°40'519.5
2017-Dec-02 22:00N 53°31' E 004°47'1019.4
2017-Dec-02 21:31N 53°34' E 005°02'1118.8
2017-Dec-02 20:56N 53°38' E 005°19'7717.3
2017-Dec-02 16:31N 53°58' E 007°24'118.6
2017-Dec-02 16:28N 53°58' E 007°25'1415.9
2017-Dec-02 15:36N 53°53' E 007°48'116.0
2017-Dec-02 15:30N 53°53' E 007°50'713.7
2017-Dec-02 15:00N 53°51' E 008°01'815.7
2017-Dec-02 14:31N 53°46' E 008°11'817.0
2017-Dec-02 14:01N 53°41' E 008°22'815.0
2017-Dec-02 13:30N 53°35' E 008°31'1 1.3
2017-Dec-02 13:00N 53°35' E 008°32'0 0.0
2017-Dec-02 12:29N 53°35' E 008°32'0 0.0
2017-Dec-02 11:59N 53°35' E 008°32'0 0.0
2017-Dec-02 11:29N 53°35' E 008°32'0 0.0
2017-Dec-02 10:59N 53°35' E 008°32'0 0.0
2017-Dec-02 10:29N 53°35' E 008°32'0 0.0
2017-Dec-02 09:59N 53°35' E 008°32'0 0.0
2017-Dec-02 09:29N 53°35' E 008°32'0 0.0
2017-Dec-02 08:59N 53°35' E 008°32'0 0.0
2017-Dec-02 08:29N 53°35' E 008°32'0 0.0
2017-Dec-02 07:59N 53°35' E 008°32'0 0.0
2017-Dec-02 07:29N 53°35' E 008°32'0 0.0
2017-Dec-02 06:59N 53°35' E 008°32'0 0.0
2017-Dec-02 06:29N 53°35' E 008°32'0 0.0
2017-Dec-02 05:59N 53°35' E 008°32'0 0.0
2017-Dec-02 05:29N 53°35' E 008°32'0 0.0
2017-Dec-02 04:59N 53°35' E 008°32'0 0.0
2017-Dec-02 04:29N 53°35' E 008°32'0 0.0
2017-Dec-02 03:59N 53°35' E 008°32'0 0.1
2017-Dec-02 03:29N 53°35' E 008°32'0 0.0
2017-Dec-02 02:59N 53°35' E 008°32'0 0.0
2017-Dec-02 02:29N 53°35' E 008°32'0 0.1
2017-Dec-02 01:59N 53°35' E 008°32'0 0.0
2017-Dec-02 01:29N 53°35' E 008°32'0 0.0
2017-Dec-02 00:59N 53°35' E 008°32'0 0.0
2017-Dec-02 00:29N 53°35' E 008°32'0 0.0
2017-Dec-01 23:59N 53°35' E 008°32'0 0.0
2017-Dec-01 23:29N 53°35' E 008°32'0 0.0
2017-Dec-01 22:59N 53°35' E 008°32'0 0.0
2017-Dec-01 22:29N 53°35' E 008°32'0 0.0
2017-Dec-01 21:59N 53°35' E 008°32'0 0.0
2017-Dec-01 21:29N 53°35' E 008°32'0 0.0
2017-Dec-01 20:59N 53°35' E 008°32'0 0.0
2017-Dec-01 20:29N 53°35' E 008°32'0 0.0
2017-Dec-01 19:59N 53°35' E 008°32'0 0.0
2017-Dec-01 19:29N 53°35' E 008°32'0 0.0
2017-Dec-01 18:59N 53°35' E 008°32'0 0.0
2017-Dec-01 18:29N 53°35' E 008°32'0 0.0
2017-Dec-01 17:59N 53°35' E 008°32'0 0.0
2017-Dec-01 17:29N 53°35' E 008°32'0 0.0
2017-Dec-01 16:59N 53°35' E 008°32'0 0.0
2017-Dec-01 16:30N 53°35' E 008°32'1 1.9
2017-Dec-01 16:00N 53°36' E 008°31'510.4
2017-Dec-01 15:30N 53°39' E 008°24'713.4
2017-Dec-01 15:01N 53°43' E 008°16'713.4
2017-Dec-01 14:30N 53°48' E 008°08'713.5
2017-Dec-01 14:00N 53°51' E 007°58'611.9
2017-Dec-01 13:30N 53°53' E 007°48'612.4
2017-Dec-01 12:59N 53°53' E 007°37'1 1.4
2017-Dec-01 12:19N 53°54' E 007°36'  

Dump ship's entire track history